sensor_id;sensor_type;location;lat;lon;timestamp;P1;durP1;ratioP1;P2;durP2;ratioP2
8230;SDS011;4156;50.908;6.974;2023-03-30T00:00:32;3.00;;;1.90;;
8230;SDS011;4156;50.908;6.974;2023-03-30T00:02:57;2.63;;;1.80;;
8230;SDS011;4156;50.908;6.974;2023-03-30T00:05:26;3.57;;;2.07;;
8230;SDS011;4156;50.908;6.974;2023-03-30T00:07:55;2.97;;;1.90;;
8230;SDS011;4156;50.908;6.974;2023-03-30T00:10:21;3.20;;;2.10;;
8230;SDS011;4156;50.908;6.974;2023-03-30T00:12:47;2.80;;;1.90;;
8230;SDS011;4156;50.908;6.974;2023-03-30T00:15:18;3.27;;;1.80;;
8230;SDS011;4156;50.908;6.974;2023-03-30T00:17:45;4.70;;;2.00;;
8230;SDS011;4156;50.908;6.974;2023-03-30T00:20:12;4.17;;;2.00;;
8230;SDS011;4156;50.908;6.974;2023-03-30T00:22:42;3.23;;;2.00;;
8230;SDS011;4156;50.908;6.974;2023-03-30T00:25:10;4.13;;;2.40;;
8230;SDS011;4156;50.908;6.974;2023-03-30T00:27:38;3.80;;;1.97;;
8230;SDS011;4156;50.908;6.974;2023-03-30T00:30:05;5.00;;;2.20;;
8230;SDS011;4156;50.908;6.974;2023-03-30T00:32:32;2.93;;;2.13;;
8230;SDS011;4156;50.908;6.974;2023-03-30T00:34:58;3.00;;;2.00;;
8230;SDS011;4156;50.908;6.974;2023-03-30T00:37:25;4.93;;;1.80;;
8230;SDS011;4156;50.908;6.974;2023-03-30T00:39:51;1.97;;;1.73;;
8230;SDS011;4156;50.908;6.974;2023-03-30T00:42:17;2.90;;;1.80;;
8230;SDS011;4156;50.908;6.974;2023-03-30T00:47:29;3.80;;;2.00;;
8230;SDS011;4156;50.908;6.974;2023-03-30T00:49:55;3.50;;;2.10;;
8230;SDS011;4156;50.908;6.974;2023-03-30T00:52:21;5.97;;;2.10;;
8230;SDS011;4156;50.908;6.974;2023-03-30T00:54:49;3.67;;;2.33;;
8230;SDS011;4156;50.908;6.974;2023-03-30T00:57:16;3.97;;;1.90;;
8230;SDS011;4156;50.908;6.974;2023-03-30T00:59:43;2.13;;;1.60;;
8230;SDS011;4156;50.908;6.974;2023-03-30T01:02:09;3.40;;;1.90;;
8230;SDS011;4156;50.908;6.974;2023-03-30T01:04:34;3.27;;;1.80;;
8230;SDS011;4156;50.908;6.974;2023-03-30T01:07:01;1.83;;;1.50;;
8230;SDS011;4156;50.908;6.974;2023-03-30T01:09:28;4.57;;;1.83;;
8230;SDS011;4156;50.908;6.974;2023-03-30T01:11:54;4.93;;;2.07;;
8230;SDS011;4156;50.908;6.974;2023-03-30T01:14:19;8.67;;;1.97;;
8230;SDS011;4156;50.908;6.974;2023-03-30T01:16:56;4.00;;;1.87;;
8230;SDS011;4156;50.908;6.974;2023-03-30T01:19:53;4.00;;;1.80;;
8230;SDS011;4156;50.908;6.974;2023-03-30T01:22:52;3.20;;;1.93;;
8230;SDS011;4156;50.908;6.974;2023-03-30T01:31:01;4.87;;;2.10;;
8230;SDS011;4156;50.908;6.974;2023-03-30T01:41:49;4.27;;;1.73;;
8230;SDS011;4156;50.908;6.974;2023-03-30T01:44:47;2.53;;;1.70;;
8230;SDS011;4156;50.908;6.974;2023-03-30T01:47:34;2.07;;;1.60;;
8230;SDS011;4156;50.908;6.974;2023-03-30T01:52:51;4.20;;;2.20;;
8230;SDS011;4156;50.908;6.974;2023-03-30T01:55:27;4.47;;;2.20;;
8230;SDS011;4156;50.908;6.974;2023-03-30T01:58:09;2.27;;;1.67;;
8230;SDS011;4156;50.908;6.974;2023-03-30T02:00:41;3.73;;;2.20;;
8230;SDS011;4156;50.908;6.974;2023-03-30T02:03:15;3.67;;;2.10;;
8230;SDS011;4156;50.908;6.974;2023-03-30T02:05:45;3.80;;;1.90;;
8230;SDS011;4156;50.908;6.974;2023-03-30T02:08:16;6.33;;;1.83;;
8230;SDS011;4156;50.908;6.974;2023-03-30T02:10:44;3.83;;;2.00;;
8230;SDS011;4156;50.908;6.974;2023-03-30T02:13:12;3.80;;;1.70;;
8230;SDS011;4156;50.908;6.974;2023-03-30T02:15:46;5.07;;;2.00;;
8230;SDS011;4156;50.908;6.974;2023-03-30T02:18:15;3.37;;;1.67;;
8230;SDS011;4156;50.908;6.974;2023-03-30T02:20:41;3.27;;;1.70;;
8230;SDS011;4156;50.908;6.974;2023-03-30T02:23:06;4.03;;;2.00;;
8230;SDS011;4156;50.908;6.974;2023-03-30T02:25:33;3.63;;;2.10;;
8230;SDS011;4156;50.908;6.974;2023-03-30T02:28:02;5.47;;;2.53;;
8230;SDS011;4156;50.908;6.974;2023-03-30T02:30:32;5.53;;;2.13;;
8230;SDS011;4156;50.908;6.974;2023-03-30T02:32:58;4.03;;;1.70;;
8230;SDS011;4156;50.908;6.974;2023-03-30T02:38:30;4.00;;;1.70;;
8230;SDS011;4156;50.908;6.974;2023-03-30T02:46:58;3.77;;;1.80;;
8230;SDS011;4156;50.908;6.974;2023-03-30T02:52:22;3.60;;;1.90;;
8230;SDS011;4156;50.908;6.974;2023-03-30T02:57:47;9.23;;;1.93;;
8230;SDS011;4156;50.908;6.974;2023-03-30T03:00:17;2.67;;;1.60;;
8230;SDS011;4156;50.908;6.974;2023-03-30T03:02:51;2.93;;;1.67;;
8230;SDS011;4156;50.908;6.974;2023-03-30T03:05:21;5.33;;;1.70;;
8230;SDS011;4156;50.908;6.974;2023-03-30T03:07:50;2.60;;;2.10;;
8230;SDS011;4156;50.908;6.974;2023-03-30T03:10:16;3.17;;;1.70;;
8230;SDS011;4156;50.908;6.974;2023-03-30T03:12:41;3.77;;;1.93;;
8230;SDS011;4156;50.908;6.974;2023-03-30T03:15:09;3.03;;;1.77;;
8230;SDS011;4156;50.908;6.974;2023-03-30T03:17:35;5.10;;;1.93;;
8230;SDS011;4156;50.908;6.974;2023-03-30T03:20:04;4.50;;;1.87;;
8230;SDS011;4156;50.908;6.974;2023-03-30T03:22:32;4.80;;;2.37;;
8230;SDS011;4156;50.908;6.974;2023-03-30T03:24:57;2.97;;;2.00;;
8230;SDS011;4156;50.908;6.974;2023-03-30T03:27:23;5.73;;;2.20;;
8230;SDS011;4156;50.908;6.974;2023-03-30T03:29:48;4.93;;;1.87;;
8230;SDS011;4156;50.908;6.974;2023-03-30T03:32:14;11.30;;;2.00;;
8230;SDS011;4156;50.908;6.974;2023-03-30T03:34:40;5.57;;;1.83;;
8230;SDS011;4156;50.908;6.974;2023-03-30T03:37:08;6.10;;;1.90;;
8230;SDS011;4156;50.908;6.974;2023-03-30T03:39:34;4.87;;;2.63;;
8230;SDS011;4156;50.908;6.974;2023-03-30T03:42:01;3.90;;;1.90;;
8230;SDS011;4156;50.908;6.974;2023-03-30T03:44:27;5.13;;;1.70;;
8230;SDS011;4156;50.908;6.974;2023-03-30T03:46:52;4.30;;;1.70;;
8230;SDS011;4156;50.908;6.974;2023-03-30T03:49:18;4.07;;;2.10;;
8230;SDS011;4156;50.908;6.974;2023-03-30T03:51:43;3.80;;;2.17;;
8230;SDS011;4156;50.908;6.974;2023-03-30T03:54:09;2.17;;;1.70;;
8230;SDS011;4156;50.908;6.974;2023-03-30T03:56:34;4.97;;;1.90;;
8230;SDS011;4156;50.908;6.974;2023-03-30T03:59:00;8.03;;;2.30;;
8230;SDS011;4156;50.908;6.974;2023-03-30T04:01:27;3.63;;;1.83;;
8230;SDS011;4156;50.908;6.974;2023-03-30T04:03:54;6.47;;;2.53;;
8230;SDS011;4156;50.908;6.974;2023-03-30T04:06:19;6.07;;;2.23;;
8230;SDS011;4156;50.908;6.974;2023-03-30T04:08:45;6.27;;;2.43;;
8230;SDS011;4156;50.908;6.974;2023-03-30T04:11:11;4.00;;;2.10;;
8230;SDS011;4156;50.908;6.974;2023-03-30T04:13:37;4.43;;;2.37;;
8230;SDS011;4156;50.908;6.974;2023-03-30T04:16:03;4.07;;;2.03;;
8230;SDS011;4156;50.908;6.974;2023-03-30T04:18:30;4.73;;;2.03;;
8230;SDS011;4156;50.908;6.974;2023-03-30T04:20:57;7.23;;;2.73;;
8230;SDS011;4156;50.908;6.974;2023-03-30T04:23:27;4.13;;;1.70;;
8230;SDS011;4156;50.908;6.974;2023-03-30T04:25:57;5.27;;;2.27;;
8230;SDS011;4156;50.908;6.974;2023-03-30T04:28:30;3.77;;;2.03;;
8230;SDS011;4156;50.908;6.974;2023-03-30T04:30:58;7.10;;;2.53;;
8230;SDS011;4156;50.908;6.974;2023-03-30T04:33:27;4.00;;;2.00;;
8230;SDS011;4156;50.908;6.974;2023-03-30T04:35:53;4.07;;;2.57;;
8230;SDS011;4156;50.908;6.974;2023-03-30T04:38:19;4.87;;;2.60;;
8230;SDS011;4156;50.908;6.974;2023-03-30T04:40:48;6.80;;;2.20;;
8230;SDS011;4156;50.908;6.974;2023-03-30T04:43:15;4.83;;;2.20;;
8230;SDS011;4156;50.908;6.974;2023-03-30T04:45:47;4.80;;;2.27;;
8230;SDS011;4156;50.908;6.974;2023-03-30T04:48:13;4.23;;;2.10;;
8230;SDS011;4156;50.908;6.974;2023-03-30T04:50:39;4.40;;;2.10;;
8230;SDS011;4156;50.908;6.974;2023-03-30T04:53:05;4.27;;;2.17;;
8230;SDS011;4156;50.908;6.974;2023-03-30T04:55:30;5.00;;;2.50;;
8230;SDS011;4156;50.908;6.974;2023-03-30T04:57:56;7.00;;;2.70;;
8230;SDS011;4156;50.908;6.974;2023-03-30T05:00:21;6.70;;;2.33;;
8230;SDS011;4156;50.908;6.974;2023-03-30T05:02:47;6.20;;;2.33;;
8230;SDS011;4156;50.908;6.974;2023-03-30T05:05:12;4.27;;;2.20;;
8230;SDS011;4156;50.908;6.974;2023-03-30T05:07:38;8.17;;;2.97;;
8230;SDS011;4156;50.908;6.974;2023-03-30T05:10:03;3.77;;;2.43;;
8230;SDS011;4156;50.908;6.974;2023-03-30T05:12:29;4.50;;;2.10;;
8230;SDS011;4156;50.908;6.974;2023-03-30T05:14:55;4.17;;;2.20;;
8230;SDS011;4156;50.908;6.974;2023-03-30T05:17:20;4.87;;;2.40;;
8230;SDS011;4156;50.908;6.974;2023-03-30T05:19:46;6.97;;;2.50;;
8230;SDS011;4156;50.908;6.974;2023-03-30T05:22:11;8.20;;;2.60;;
8230;SDS011;4156;50.908;6.974;2023-03-30T05:24:38;5.10;;;2.33;;
8230;SDS011;4156;50.908;6.974;2023-03-30T05:27:03;5.67;;;2.50;;
8230;SDS011;4156;50.908;6.974;2023-03-30T05:29:30;5.20;;;2.90;;
8230;SDS011;4156;50.908;6.974;2023-03-30T05:31:56;7.20;;;2.60;;
8230;SDS011;4156;50.908;6.974;2023-03-30T05:34:21;4.70;;;2.33;;
8230;SDS011;4156;50.908;6.974;2023-03-30T05:36:47;7.27;;;2.87;;
8230;SDS011;4156;50.908;6.974;2023-03-30T05:39:12;6.17;;;2.60;;
8230;SDS011;4156;50.908;6.974;2023-03-30T05:41:38;4.30;;;2.50;;
8230;SDS011;4156;50.908;6.974;2023-03-30T05:44:03;5.07;;;2.20;;
8230;SDS011;4156;50.908;6.974;2023-03-30T05:46:30;5.00;;;2.30;;
8230;SDS011;4156;50.908;6.974;2023-03-30T05:48:55;3.63;;;2.27;;
8230;SDS011;4156;50.908;6.974;2023-03-30T05:51:21;5.20;;;2.30;;
8230;SDS011;4156;50.908;6.974;2023-03-30T05:53:47;5.07;;;2.70;;
8230;SDS011;4156;50.908;6.974;2023-03-30T05:56:12;8.37;;;2.63;;
8230;SDS011;4156;50.908;6.974;2023-03-30T05:58:38;7.47;;;2.10;;
8230;SDS011;4156;50.908;6.974;2023-03-30T06:01:03;3.20;;;2.50;;
8230;SDS011;4156;50.908;6.974;2023-03-30T06:03:29;4.93;;;2.63;;
8230;SDS011;4156;50.908;6.974;2023-03-30T06:05:55;5.00;;;2.73;;
8230;SDS011;4156;50.908;6.974;2023-03-30T06:08:21;7.13;;;2.87;;
8230;SDS011;4156;50.908;6.974;2023-03-30T06:10:53;3.40;;;2.53;;
8230;SDS011;4156;50.908;6.974;2023-03-30T06:13:20;5.10;;;2.37;;
8230;SDS011;4156;50.908;6.974;2023-03-30T06:15:45;5.20;;;2.37;;
8230;SDS011;4156;50.908;6.974;2023-03-30T06:18:11;3.97;;;2.50;;
8230;SDS011;4156;50.908;6.974;2023-03-30T06:20:36;5.07;;;2.27;;
8230;SDS011;4156;50.908;6.974;2023-03-30T06:23:02;5.83;;;2.57;;
8230;SDS011;4156;50.908;6.974;2023-03-30T06:25:28;4.67;;;2.40;;
8230;SDS011;4156;50.908;6.974;2023-03-30T06:27:54;5.53;;;2.77;;
8230;SDS011;4156;50.908;6.974;2023-03-30T06:30:19;4.70;;;2.50;;
8230;SDS011;4156;50.908;6.974;2023-03-30T06:32:45;4.73;;;2.33;;
8230;SDS011;4156;50.908;6.974;2023-03-30T06:35:11;4.97;;;2.47;;
8230;SDS011;4156;50.908;6.974;2023-03-30T06:37:40;6.73;;;2.50;;
8230;SDS011;4156;50.908;6.974;2023-03-30T06:40:06;7.73;;;2.70;;
8230;SDS011;4156;50.908;6.974;2023-03-30T06:42:36;3.87;;;2.17;;
8230;SDS011;4156;50.908;6.974;2023-03-30T06:45:02;8.70;;;2.33;;
8230;SDS011;4156;50.908;6.974;2023-03-30T06:47:28;4.97;;;2.20;;
8230;SDS011;4156;50.908;6.974;2023-03-30T06:49:53;7.43;;;2.43;;
8230;SDS011;4156;50.908;6.974;2023-03-30T06:52:19;7.07;;;2.10;;
8230;SDS011;4156;50.908;6.974;2023-03-30T06:54:45;6.30;;;2.40;;
8230;SDS011;4156;50.908;6.974;2023-03-30T06:57:10;4.73;;;2.00;;
8230;SDS011;4156;50.908;6.974;2023-03-30T06:59:36;4.07;;;1.97;;
8230;SDS011;4156;50.908;6.974;2023-03-30T07:02:01;2.97;;;1.90;;
8230;SDS011;4156;50.908;6.974;2023-03-30T07:04:27;5.20;;;2.13;;
8230;SDS011;4156;50.908;6.974;2023-03-30T07:06:53;5.93;;;2.73;;
8230;SDS011;4156;50.908;6.974;2023-03-30T07:09:22;4.97;;;2.30;;
8230;SDS011;4156;50.908;6.974;2023-03-30T07:11:48;9.37;;;2.13;;
8230;SDS011;4156;50.908;6.974;2023-03-30T07:14:15;4.60;;;2.40;;
8230;SDS011;4156;50.908;6.974;2023-03-30T07:16:41;4.47;;;2.47;;
8230;SDS011;4156;50.908;6.974;2023-03-30T07:19:06;5.07;;;2.60;;
8230;SDS011;4156;50.908;6.974;2023-03-30T07:21:32;7.27;;;2.50;;
8230;SDS011;4156;50.908;6.974;2023-03-30T07:23:58;6.57;;;2.90;;
8230;SDS011;4156;50.908;6.974;2023-03-30T07:26:27;5.90;;;2.20;;
8230;SDS011;4156;50.908;6.974;2023-03-30T07:28:53;6.00;;;2.23;;
8230;SDS011;4156;50.908;6.974;2023-03-30T07:31:21;2.23;;;1.97;;
8230;SDS011;4156;50.908;6.974;2023-03-30T07:33:48;3.50;;;2.00;;
8230;SDS011;4156;50.908;6.974;2023-03-30T07:36:14;5.60;;;2.20;;
8230;SDS011;4156;50.908;6.974;2023-03-30T07:38:40;5.80;;;2.00;;
8230;SDS011;4156;50.908;6.974;2023-03-30T07:41:06;7.47;;;2.40;;
8230;SDS011;4156;50.908;6.974;2023-03-30T07:43:33;6.77;;;2.23;;
8230;SDS011;4156;50.908;6.974;2023-03-30T07:45:59;4.40;;;2.60;;
8230;SDS011;4156;50.908;6.974;2023-03-30T07:48:25;4.97;;;1.80;;
8230;SDS011;4156;50.908;6.974;2023-03-30T07:50:57;3.77;;;2.00;;
8230;SDS011;4156;50.908;6.974;2023-03-30T07:53:24;6.43;;;1.90;;
8230;SDS011;4156;50.908;6.974;2023-03-30T07:55:50;3.83;;;2.07;;
8230;SDS011;4156;50.908;6.974;2023-03-30T07:58:15;4.47;;;2.00;;
8230;SDS011;4156;50.908;6.974;2023-03-30T08:00:41;3.73;;;2.00;;
8230;SDS011;4156;50.908;6.974;2023-03-30T08:03:06;2.27;;;1.97;;
8230;SDS011;4156;50.908;6.974;2023-03-30T08:05:32;4.40;;;1.90;;
8230;SDS011;4156;50.908;6.974;2023-03-30T08:07:57;3.53;;;1.90;;
8230;SDS011;4156;50.908;6.974;2023-03-30T08:10:23;6.63;;;3.10;;
8230;SDS011;4156;50.908;6.974;2023-03-30T08:12:48;5.87;;;1.80;;
8230;SDS011;4156;50.908;6.974;2023-03-30T08:15:14;3.90;;;1.90;;
8230;SDS011;4156;50.908;6.974;2023-03-30T08:17:39;3.90;;;1.77;;
8230;SDS011;4156;50.908;6.974;2023-03-30T08:20:06;4.00;;;1.70;;
8230;SDS011;4156;50.908;6.974;2023-03-30T08:22:34;4.70;;;1.80;;
8230;SDS011;4156;50.908;6.974;2023-03-30T08:25:00;2.07;;;1.47;;
8230;SDS011;4156;50.908;6.974;2023-03-30T08:27:25;3.67;;;1.70;;
8230;SDS011;4156;50.908;6.974;2023-03-30T08:29:51;3.10;;;1.80;;
8230;SDS011;4156;50.908;6.974;2023-03-30T08:32:18;2.50;;;1.60;;
8230;SDS011;4156;50.908;6.974;2023-03-30T08:34:44;2.00;;;1.40;;
8230;SDS011;4156;50.908;6.974;2023-03-30T08:37:09;3.20;;;1.53;;
8230;SDS011;4156;50.908;6.974;2023-03-30T08:39:36;4.50;;;1.63;;
8230;SDS011;4156;50.908;6.974;2023-03-30T08:42:07;2.77;;;1.50;;
8230;SDS011;4156;50.908;6.974;2023-03-30T08:44:55;2.83;;;2.10;;
8230;SDS011;4156;50.908;6.974;2023-03-30T08:47:31;2.90;;;1.53;;
8230;SDS011;4156;50.908;6.974;2023-03-30T08:52:30;3.90;;;1.30;;
8230;SDS011;4156;50.908;6.974;2023-03-30T08:54:57;2.20;;;1.40;;
8230;SDS011;4156;50.908;6.974;2023-03-30T09:00:02;4.13;;;2.10;;
8230;SDS011;4156;50.908;6.974;2023-03-30T09:02:41;3.30;;;1.80;;
8230;SDS011;4156;50.908;6.974;2023-03-30T09:10:38;3.20;;;1.60;;
8230;SDS011;4156;50.908;6.974;2023-03-30T09:13:09;2.80;;;1.80;;
8230;SDS011;4156;50.908;6.974;2023-03-30T09:15:42;2.90;;;1.30;;
8230;SDS011;4156;50.908;6.974;2023-03-30T09:20:49;3.30;;;1.50;;
8230;SDS011;4156;50.908;6.974;2023-03-30T09:23:18;2.83;;;1.50;;
8230;SDS011;4156;50.908;6.974;2023-03-30T09:25:45;5.33;;;2.03;;
8230;SDS011;4156;50.908;6.974;2023-03-30T09:31:32;2.10;;;1.60;;
8230;SDS011;4156;50.908;6.974;2023-03-30T09:34:07;2.37;;;1.50;;
8230;SDS011;4156;50.908;6.974;2023-03-30T09:39:20;3.37;;;2.00;;
8230;SDS011;4156;50.908;6.974;2023-03-30T09:44:46;3.40;;;1.60;;
8230;SDS011;4156;50.908;6.974;2023-03-30T09:50:03;3.83;;;1.53;;
8230;SDS011;4156;50.908;6.974;2023-03-30T09:52:40;1.73;;;1.43;;
8230;SDS011;4156;50.908;6.974;2023-03-30T09:57:47;2.97;;;1.40;;
8230;SDS011;4156;50.908;6.974;2023-03-30T10:00:25;4.77;;;1.37;;
8230;SDS011;4156;50.908;6.974;2023-03-30T10:02:55;2.27;;;1.40;;
8230;SDS011;4156;50.908;6.974;2023-03-30T10:05:35;4.13;;;1.50;;
8230;SDS011;4156;50.908;6.974;2023-03-30T10:08:05;6.03;;;2.00;;
8230;SDS011;4156;50.908;6.974;2023-03-30T10:14:44;3.00;;;1.40;;
8230;SDS011;4156;50.908;6.974;2023-03-30T10:17:29;3.63;;;1.47;;
8230;SDS011;4156;50.908;6.974;2023-03-30T10:20:29;2.70;;;1.60;;
8230;SDS011;4156;50.908;6.974;2023-03-30T10:23:13;2.97;;;1.40;;
8230;SDS011;4156;50.908;6.974;2023-03-30T10:25:49;4.20;;;1.50;;
8230;SDS011;4156;50.908;6.974;2023-03-30T10:28:28;2.87;;;1.20;;
8230;SDS011;4156;50.908;6.974;2023-03-30T10:30:59;3.73;;;1.63;;
8230;SDS011;4156;50.908;6.974;2023-03-30T10:33:45;3.10;;;1.57;;
8230;SDS011;4156;50.908;6.974;2023-03-30T10:36:49;3.03;;;1.50;;
8230;SDS011;4156;50.908;6.974;2023-03-30T10:39:32;2.77;;;1.40;;
8230;SDS011;4156;50.908;6.974;2023-03-30T10:42:25;1.20;;;1.00;;
8230;SDS011;4156;50.908;6.974;2023-03-30T10:46:05;3.63;;;1.70;;
8230;SDS011;4156;50.908;6.974;2023-03-30T11:01:39;2.07;;;1.10;;
8230;SDS011;4156;50.908;6.974;2023-03-30T11:04:48;1.80;;;1.20;;
8230;SDS011;4156;50.908;6.974;2023-03-30T11:08:23;1.47;;;1.10;;
8230;SDS011;4156;50.908;6.974;2023-03-30T11:10:59;1.20;;;1.10;;
8230;SDS011;4156;50.908;6.974;2023-03-30T11:13:53;4.30;;;1.60;;
8230;SDS011;4156;50.908;6.974;2023-03-30T11:19:36;4.17;;;1.33;;
8230;SDS011;4156;50.908;6.974;2023-03-30T11:32:30;2.97;;;1.60;;
8230;SDS011;4156;50.908;6.974;2023-03-30T11:44:04;5.63;;;1.80;;
8230;SDS011;4156;50.908;6.974;2023-03-30T11:46:51;3.87;;;1.60;;
8230;SDS011;4156;50.908;6.974;2023-03-30T11:49:41;5.03;;;1.70;;
8230;SDS011;4156;50.908;6.974;2023-03-30T11:55:17;5.90;;;1.67;;
8230;SDS011;4156;50.908;6.974;2023-03-30T11:58:00;3.70;;;2.30;;
8230;SDS011;4156;50.908;6.974;2023-03-30T12:03:34;1.27;;;1.07;;
8230;SDS011;4156;50.908;6.974;2023-03-30T12:06:16;2.60;;;1.40;;
8230;SDS011;4156;50.908;6.974;2023-03-30T12:14:39;1.37;;;1.07;;
8230;SDS011;4156;50.908;6.974;2023-03-30T12:19:53;2.17;;;1.00;;
8230;SDS011;4156;50.908;6.974;2023-03-30T12:22:29;1.73;;;1.30;;
8230;SDS011;4156;50.908;6.974;2023-03-30T12:24:58;6.77;;;1.40;;
8230;SDS011;4156;50.908;6.974;2023-03-30T12:27:33;9.00;;;1.60;;
8230;SDS011;4156;50.908;6.974;2023-03-30T12:30:12;2.97;;;1.40;;
8230;SDS011;4156;50.908;6.974;2023-03-30T12:32:56;2.00;;;1.00;;
8230;SDS011;4156;50.908;6.974;2023-03-30T12:38:14;3.07;;;1.10;;
8230;SDS011;4156;50.908;6.974;2023-03-30T12:41:10;2.27;;;1.40;;
8230;SDS011;4156;50.908;6.974;2023-03-30T12:46:24;3.90;;;1.50;;
8230;SDS011;4156;50.908;6.974;2023-03-30T12:49:18;3.27;;;1.53;;
8230;SDS011;4156;50.908;6.974;2023-03-30T13:05:15;4.93;;;1.60;;
8230;SDS011;4156;50.908;6.974;2023-03-30T13:07:42;6.10;;;2.43;;
8230;SDS011;4156;50.908;6.974;2023-03-30T13:10:32;4.03;;;1.37;;
8230;SDS011;4156;50.908;6.974;2023-03-30T13:12:56;4.33;;;1.40;;
8230;SDS011;4156;50.908;6.974;2023-03-30T13:15:31;5.43;;;1.53;;
8230;SDS011;4156;50.908;6.974;2023-03-30T13:20:35;2.93;;;1.90;;
8230;SDS011;4156;50.908;6.974;2023-03-30T13:28:31;2.67;;;1.50;;
8230;SDS011;4156;50.908;6.974;2023-03-30T13:39:57;2.60;;;1.33;;
8230;SDS011;4156;50.908;6.974;2023-03-30T13:42:42;2.37;;;1.20;;
8230;SDS011;4156;50.908;6.974;2023-03-30T13:51:01;4.87;;;1.50;;
8230;SDS011;4156;50.908;6.974;2023-03-30T13:53:30;3.77;;;1.33;;
8230;SDS011;4156;50.908;6.974;2023-03-30T13:56:05;2.77;;;1.10;;
8230;SDS011;4156;50.908;6.974;2023-03-30T13:58:32;2.03;;;1.20;;
8230;SDS011;4156;50.908;6.974;2023-03-30T14:01:04;2.90;;;1.43;;
8230;SDS011;4156;50.908;6.974;2023-03-30T14:06:15;2.07;;;1.20;;
8230;SDS011;4156;50.908;6.974;2023-03-30T14:08:46;3.27;;;1.47;;
8230;SDS011;4156;50.908;6.974;2023-03-30T14:16:54;5.17;;;1.40;;
8230;SDS011;4156;50.908;6.974;2023-03-30T14:19:28;6.70;;;1.60;;
8230;SDS011;4156;50.908;6.974;2023-03-30T14:21:59;4.00;;;1.47;;
8230;SDS011;4156;50.908;6.974;2023-03-30T14:24:32;1.97;;;1.20;;
8230;SDS011;4156;50.908;6.974;2023-03-30T14:27:20;3.03;;;1.30;;
8230;SDS011;4156;50.908;6.974;2023-03-30T14:29:46;2.93;;;1.50;;
8230;SDS011;4156;50.908;6.974;2023-03-30T14:38:57;3.53;;;1.40;;
8230;SDS011;4156;50.908;6.974;2023-03-30T14:41:23;5.70;;;2.20;;
8230;SDS011;4156;50.908;6.974;2023-03-30T14:46:30;5.33;;;1.60;;
8230;SDS011;4156;50.908;6.974;2023-03-30T14:49:16;5.10;;;1.73;;
8230;SDS011;4156;50.908;6.974;2023-03-30T14:51:47;5.53;;;1.50;;
8230;SDS011;4156;50.908;6.974;2023-03-30T14:54:21;5.50;;;2.00;;
8230;SDS011;4156;50.908;6.974;2023-03-30T14:56:58;7.17;;;1.90;;
8230;SDS011;4156;50.908;6.974;2023-03-30T14:59:27;3.73;;;1.73;;
8230;SDS011;4156;50.908;6.974;2023-03-30T15:01:56;8.53;;;2.40;;
8230;SDS011;4156;50.908;6.974;2023-03-30T15:04:23;6.70;;;1.83;;
8230;SDS011;4156;50.908;6.974;2023-03-30T15:06:52;5.73;;;1.80;;
8230;SDS011;4156;50.908;6.974;2023-03-30T15:09:20;4.33;;;1.53;;
8230;SDS011;4156;50.908;6.974;2023-03-30T15:11:57;4.87;;;1.80;;
8230;SDS011;4156;50.908;6.974;2023-03-30T15:14:25;5.97;;;1.77;;
8230;SDS011;4156;50.908;6.974;2023-03-30T15:16:56;4.57;;;1.73;;
8230;SDS011;4156;50.908;6.974;2023-03-30T15:21:55;2.43;;;1.50;;
8230;SDS011;4156;50.908;6.974;2023-03-30T15:24:27;4.23;;;1.50;;
8230;SDS011;4156;50.908;6.974;2023-03-30T15:27:00;6.17;;;2.13;;
8230;SDS011;4156;50.908;6.974;2023-03-30T15:29:29;6.10;;;1.70;;
8230;SDS011;4156;50.908;6.974;2023-03-30T15:32:04;3.33;;;1.80;;
8230;SDS011;4156;50.908;6.974;2023-03-30T15:37:56;4.30;;;1.47;;
8230;SDS011;4156;50.908;6.974;2023-03-30T15:45:39;2.87;;;1.20;;
8230;SDS011;4156;50.908;6.974;2023-03-30T15:48:11;2.73;;;1.40;;
8230;SDS011;4156;50.908;6.974;2023-03-30T15:50:37;3.67;;;1.37;;
8230;SDS011;4156;50.908;6.974;2023-03-30T15:53:02;2.70;;;1.30;;
8230;SDS011;4156;50.908;6.974;2023-03-30T15:55:30;2.30;;;1.27;;
8230;SDS011;4156;50.908;6.974;2023-03-30T15:57:57;2.50;;;1.50;;
8230;SDS011;4156;50.908;6.974;2023-03-30T16:00:25;2.60;;;1.27;;
8230;SDS011;4156;50.908;6.974;2023-03-30T16:02:57;2.60;;;1.37;;
8230;SDS011;4156;50.908;6.974;2023-03-30T16:05:24;3.37;;;2.30;;
8230;SDS011;4156;50.908;6.974;2023-03-30T16:07:52;1.87;;;1.20;;
8230;SDS011;4156;50.908;6.974;2023-03-30T16:10:21;3.07;;;2.00;;
8230;SDS011;4156;50.908;6.974;2023-03-30T16:12:51;3.47;;;1.70;;
8230;SDS011;4156;50.908;6.974;2023-03-30T16:15:22;4.67;;;2.33;;
8230;SDS011;4156;50.908;6.974;2023-03-30T16:17:49;2.97;;;1.47;;
8230;SDS011;4156;50.908;6.974;2023-03-30T16:20:17;5.00;;;2.03;;
8230;SDS011;4156;50.908;6.974;2023-03-30T16:23:01;3.67;;;1.60;;
8230;SDS011;4156;50.908;6.974;2023-03-30T16:25:28;1.00;;;0.90;;
8230;SDS011;4156;50.908;6.974;2023-03-30T16:27:54;2.90;;;1.57;;
8230;SDS011;4156;50.908;6.974;2023-03-30T16:30:22;3.00;;;1.43;;
8230;SDS011;4156;50.908;6.974;2023-03-30T16:32:50;3.50;;;1.70;;
8230;SDS011;4156;50.908;6.974;2023-03-30T16:35:15;5.37;;;1.80;;
8230;SDS011;4156;50.908;6.974;2023-03-30T16:37:41;4.13;;;1.50;;
8230;SDS011;4156;50.908;6.974;2023-03-30T16:40:17;3.73;;;1.43;;
8230;SDS011;4156;50.908;6.974;2023-03-30T16:43:02;2.93;;;1.57;;
8230;SDS011;4156;50.908;6.974;2023-03-30T16:45:28;4.83;;;1.63;;
8230;SDS011;4156;50.908;6.974;2023-03-30T16:47:54;2.93;;;1.60;;
8230;SDS011;4156;50.908;6.974;2023-03-30T16:53:05;3.27;;;1.60;;
8230;SDS011;4156;50.908;6.974;2023-03-30T16:55:32;3.10;;;1.33;;
8230;SDS011;4156;50.908;6.974;2023-03-30T16:57:59;3.10;;;1.60;;
8230;SDS011;4156;50.908;6.974;2023-03-30T17:00:28;1.50;;;1.07;;
8230;SDS011;4156;50.908;6.974;2023-03-30T17:02:56;1.20;;;1.10;;
8230;SDS011;4156;50.908;6.974;2023-03-30T17:05:21;1.47;;;1.20;;
8230;SDS011;4156;50.908;6.974;2023-03-30T17:07:47;3.03;;;1.40;;
8230;SDS011;4156;50.908;6.974;2023-03-30T17:10:24;2.60;;;1.50;;
8230;SDS011;4156;50.908;6.974;2023-03-30T17:12:54;1.73;;;1.20;;
8230;SDS011;4156;50.908;6.974;2023-03-30T17:15:20;3.30;;;1.10;;
8230;SDS011;4156;50.908;6.974;2023-03-30T17:17:47;2.17;;;1.20;;
8230;SDS011;4156;50.908;6.974;2023-03-30T17:22:48;2.77;;;1.20;;
8230;SDS011;4156;50.908;6.974;2023-03-30T17:25:13;4.17;;;2.47;;
8230;SDS011;4156;50.908;6.974;2023-03-30T17:27:40;2.63;;;1.30;;
8230;SDS011;4156;50.908;6.974;2023-03-30T17:30:14;1.77;;;1.10;;
8230;SDS011;4156;50.908;6.974;2023-03-30T17:32:45;4.67;;;1.60;;
8230;SDS011;4156;50.908;6.974;2023-03-30T17:35:10;3.37;;;1.50;;
8230;SDS011;4156;50.908;6.974;2023-03-30T17:37:36;2.63;;;1.20;;
8230;SDS011;4156;50.908;6.974;2023-03-30T17:40:35;2.47;;;1.30;;
8230;SDS011;4156;50.908;6.974;2023-03-30T17:42:55;2.63;;;1.23;;
8230;SDS011;4156;50.908;6.974;2023-03-30T17:45:22;2.63;;;1.10;;
8230;SDS011;4156;50.908;6.974;2023-03-30T17:47:49;2.57;;;1.47;;
8230;SDS011;4156;50.908;6.974;2023-03-30T17:50:22;6.93;;;2.20;;
8230;SDS011;4156;50.908;6.974;2023-03-30T17:52:48;2.97;;;1.30;;
8230;SDS011;4156;50.908;6.974;2023-03-30T17:55:15;2.87;;;1.30;;
8230;SDS011;4156;50.908;6.974;2023-03-30T17:57:42;2.57;;;1.40;;
8230;SDS011;4156;50.908;6.974;2023-03-30T18:00:24;3.23;;;1.63;;
8230;SDS011;4156;50.908;6.974;2023-03-30T18:02:51;3.00;;;1.83;;
8230;SDS011;4156;50.908;6.974;2023-03-30T18:05:18;4.73;;;1.77;;
8230;SDS011;4156;50.908;6.974;2023-03-30T18:07:46;3.03;;;1.23;;
8230;SDS011;4156;50.908;6.974;2023-03-30T18:10:16;2.77;;;1.73;;
8230;SDS011;4156;50.908;6.974;2023-03-30T18:12:59;1.93;;;1.43;;
8230;SDS011;4156;50.908;6.974;2023-03-30T18:15:25;3.23;;;1.50;;
8230;SDS011;4156;50.908;6.974;2023-03-30T18:17:52;2.50;;;1.40;;
8230;SDS011;4156;50.908;6.974;2023-03-30T18:22:48;5.60;;;2.70;;
8230;SDS011;4156;50.908;6.974;2023-03-30T18:25:15;4.57;;;3.13;;
8230;SDS011;4156;50.908;6.974;2023-03-30T18:27:41;3.73;;;2.00;;
8230;SDS011;4156;50.908;6.974;2023-03-30T18:30:50;4.97;;;2.00;;
8230;SDS011;4156;50.908;6.974;2023-03-30T18:32:58;2.57;;;1.67;;
8230;SDS011;4156;50.908;6.974;2023-03-30T18:35:25;2.83;;;1.53;;
8230;SDS011;4156;50.908;6.974;2023-03-30T18:37:52;3.13;;;1.90;;
8230;SDS011;4156;50.908;6.974;2023-03-30T18:42:50;6.50;;;2.10;;
8230;SDS011;4156;50.908;6.974;2023-03-30T18:45:21;2.50;;;1.50;;
8230;SDS011;4156;50.908;6.974;2023-03-30T18:47:58;5.47;;;1.80;;
8230;SDS011;4156;50.908;6.974;2023-03-30T18:53:00;3.90;;;1.93;;